Time;durP1;ratioP1;P1;durP2;ratioP2;P2;SDS_P1;SDS_P2;PMS_P1;PMS_P2;Temp;Humidity;BMP_temperature;BMP_pressure;BME280_temperature;BME280_humidity;BME280_pressure;Samples;Min_cycle;Max_cycle;Signal;HPM_P1;HPM_P2
2022/06/26 00:00:13;;;;;;;28.00;23.67;;;;;;;;;;5092920;28;20026;-68
2022/06/26 00:02:38;;;;;;;28.92;24.40;;;;;;;;;;5092716;28;20046;-68
2022/06/26 00:05:07;;;;;;;29.25;23.95;;;;;;;;;;5091564;28;20024;-66
2022/06/26 00:07:34;;;;;;;26.75;23.77;;;;;;;;;;5093037;28;20111;-67
2022/06/26 00:09:59;;;;;;;26.27;23.40;;;;;;;;;;5092796;28;20023;-66
2022/06/26 00:12:25;;;;;;;28.15;24.77;;;;;;;;;;5092807;28;20020;-67
2022/06/26 00:14:51;;;;;;;29.73;24.60;;;;;;;;;;5092827;28;20024;-67
2022/06/26 00:17:16;;;;;;;27.95;23.25;;;;;;;;;;5092391;28;20023;-67
2022/06/26 00:19:42;;;;;;;25.85;22.83;;;;;;;;;;5092906;28;20481;-66
2022/06/26 00:22:08;;;;;;;30.55;24.60;;;;;;;;;;5092735;28;20472;-67
2022/06/26 00:24:34;;;;;;;28.83;24.63;;;;;;;;;;5092195;28;20031;-67
2022/06/26 00:27:02;;;;;;;27.38;24.15;;;;;;;;;;5092701;28;20024;-67
2022/06/26 00:29:35;;;;;;;32.78;24.35;;;;;;;;;;5091114;28;20039;-67
2022/06/26 00:32:01;;;;;;;27.90;23.50;;;;;;;;;;5091927;28;20020;-67
2022/06/26 00:34:28;;;;;;;26.48;23.60;;;;;;;;;;5092579;28;20020;-66
2022/06/26 00:36:53;;;;;;;27.17;24.30;;;;;;;;;;5092532;28;20032;-67
2022/06/26 00:39:19;;;;;;;27.85;24.67;;;;;;;;;;5092373;28;20390;-67
2022/06/26 00:41:45;;;;;;;27.48;23.70;;;;;;;;;;5092458;28;20016;-67
2022/06/26 00:44:19;;;;;;;25.95;23.17;;;;;;;;;;5092496;28;20024;-64
2022/06/26 00:46:45;;;;;;;28.17;24.00;;;;;;;;;;5092224;28;20051;-67
2022/06/26 00:49:11;;;;;;;30.00;24.23;;;;;;;;;;5092287;28;20526;-67
2022/06/26 00:51:40;;;;;;;27.83;24.08;;;;;;;;;;5092380;28;20028;-66
2022/06/26 00:54:07;;;;;;;27.05;23.95;;;;;;;;;;5092394;28;20020;-67
2022/06/26 00:56:34;;;;;;;26.75;23.90;;;;;;;;;;5092239;28;20051;-67
2022/06/26 00:59:00;;;;;;;28.05;25.08;;;;;;;;;;5092043;28;20027;-67
2022/06/26 01:01:25;;;;;;;28.67;25.23;;;;;;;;;;5091945;28;20016;-66
2022/06/26 01:03:51;;;;;;;29.67;25.25;;;;;;;;;;5092274;28;20023;-67
2022/06/26 01:06:17;;;;;;;28.58;23.48;;;;;;;;;;5092167;28;20036;-66
2022/06/26 01:08:43;;;;;;;31.08;23.85;;;;;;;;;;5092090;28;20028;-65
2022/06/26 01:11:27;;;;;;;25.42;22.65;;;;;;;;;;5091985;28;20031;-67
2022/06/26 01:13:56;;;;;;;27.13;22.05;;;;;;;;;;5092257;28;20469;-67
2022/06/26 01:16:23;;;;;;;24.85;21.48;;;;;;;;;;5091943;28;20469;-67
2022/06/26 01:18:51;;;;;;;26.30;23.48;;;;;;;;;;5073782;28;20448;-65
2022/06/26 01:21:21;;;;;;;28.67;22.35;;;;;;;;;;5071806;28;20103;-66
2022/06/26 01:23:48;;;;;;;25.08;21.52;;;;;;;;;;5071729;28;20404;-67
2022/06/26 01:26:14;;;;;;;26.63;22.95;;;;;;;;;;5071895;28;20535;-67
2022/06/26 01:28:39;;;;;;;25.33;22.35;;;;;;;;;;5071797;28;20020;-66
2022/06/26 01:31:05;;;;;;;24.98;21.85;;;;;;;;;;5071588;28;20378;-67
2022/06/26 01:33:31;;;;;;;27.25;22.48;;;;;;;;;;5071798;28;20025;-67
2022/06/26 01:35:56;;;;;;;26.42;22.33;;;;;;;;;;5071755;28;20482;-67
2022/06/26 01:38:23;;;;;;;27.60;23.25;;;;;;;;;;5071781;28;20036;-66
2022/06/26 01:40:51;;;;;;;25.33;22.20;;;;;;;;;;5071716;28;20075;-67
2022/06/26 01:43:19;;;;;;;28.08;22.08;;;;;;;;;;5071553;28;20457;-67
2022/06/26 01:45:50;;;;;;;30.75;22.52;;;;;;;;;;5074552;28;20120;-67
2022/06/26 01:48:16;;;;;;;25.27;21.13;;;;;;;;;;5075360;28;20029;-67
2022/06/26 01:50:43;;;;;;;25.52;22.05;;;;;;;;;;5075074;28;20056;-66
2022/06/26 01:53:09;;;;;;;27.45;22.00;;;;;;;;;;5075138;28;20385;-66
2022/06/26 01:55:35;;;;;;;31.52;24.02;;;;;;;;;;5075177;28;20017;-66
2022/06/26 01:58:03;;;;;;;25.17;22.50;;;;;;;;;;5075082;28;20020;-67
2022/06/26 02:00:30;;;;;;;28.27;23.27;;;;;;;;;;5074799;28;20059;-66
2022/06/26 02:02:56;;;;;;;27.17;22.70;;;;;;;;;;5075058;28;20063;-66
2022/06/26 02:05:22;;;;;;;25.52;22.75;;;;;;;;;;5074946;28;20036;-66
2022/06/26 02:07:48;;;;;;;26.02;21.42;;;;;;;;;;5074942;28;20054;-67
2022/06/26 02:15:42;;;;;;;20.65;17.33;;;;;;;;;;5075139;28;20039;-67
2022/06/26 02:18:08;;;;;;;18.83;16.25;;;;;;;;;;5074674;28;20131;-66
2022/06/26 02:20:33;;;;;;;21.67;19.38;;;;;;;;;;5074629;28;20017;-67
2022/06/26 02:22:59;;;;;;;19.83;17.77;;;;;;;;;;5074367;28;20029;-66
2022/06/26 02:25:24;;;;;;;21.38;18.90;;;;;;;;;;5074286;28;20047;-64
2022/06/26 02:27:50;;;;;;;20.52;18.55;;;;;;;;;;5074369;28;20166;-67
2022/06/26 02:30:16;;;;;;;19.75;17.58;;;;;;;;;;5074612;28;20131;-67
2022/06/26 02:32:41;;;;;;;19.30;16.70;;;;;;;;;;5081970;28;20056;-67
2022/06/26 02:35:07;;;;;;;16.90;15.02;;;;;;;;;;5094685;28;20050;-67
2022/06/26 02:37:34;;;;;;;16.15;14.45;;;;;;;;;;5094608;28;20437;-67
2022/06/26 02:40:00;;;;;;;17.95;14.48;;;;;;;;;;5094577;28;20024;-67
2022/06/26 02:42:25;;;;;;;19.98;13.65;;;;;;;;;;5094351;28;20104;-67
2022/06/26 02:44:51;;;;;;;14.63;13.18;;;;;;;;;;5094404;28;20127;-66
2022/06/26 02:47:16;;;;;;;14.77;13.05;;;;;;;;;;5094297;28;20024;-67
2022/06/26 02:49:42;;;;;;;18.05;13.63;;;;;;;;;;5094502;28;20080;-67
2022/06/26 02:52:08;;;;;;;15.20;13.50;;;;;;;;;;5094400;28;20028;-67
2022/06/26 02:54:33;;;;;;;16.75;14.00;;;;;;;;;;5094228;28;20484;-67
2022/06/26 02:56:59;;;;;;;15.50;13.75;;;;;;;;;;5093961;28;20031;-67
2022/06/26 02:59:24;;;;;;;14.13;12.35;;;;;;;;;;5094176;28;20036;-67
2022/06/26 03:01:50;;;;;;;20.15;13.13;;;;;;;;;;5094125;28;20030;-67
2022/06/26 03:04:16;;;;;;;13.25;11.15;;;;;;;;;;5092922;28;20051;-66
2022/06/26 03:06:42;;;;;;;13.75;10.40;;;;;;;;;;5094001;28;20031;-66
2022/06/26 03:09:07;;;;;;;12.70;10.75;;;;;;;;;;5093888;28;20028;-67
2022/06/26 03:11:33;;;;;;;15.48;11.93;;;;;;;;;;5093835;28;20112;-67
2022/06/26 03:13:58;;;;;;;16.90;12.32;;;;;;;;;;5093834;28;20408;-66
2022/06/26 03:16:24;;;;;;;16.23;13.73;;;;;;;;;;5093811;28;20031;-66
2022/06/26 03:18:50;;;;;;;15.05;13.38;;;;;;;;;;5093479;28;20153;-67
2022/06/26 03:21:15;;;;;;;16.00;13.60;;;;;;;;;;5093673;28;20016;-67
2022/06/26 03:26:25;;;;;;;14.40;12.88;;;;;;;;;;5093291;28;20070;-67
2022/06/26 03:28:50;;;;;;;18.90;12.55;;;;;;;;;;5093656;28;20056;-67
2022/06/26 03:31:16;;;;;;;16.42;12.23;;;;;;;;;;5093506;28;20016;-67
2022/06/26 03:33:41;;;;;;;13.80;12.40;;;;;;;;;;5093708;28;20128;-65
2022/06/26 03:36:10;;;;;;;14.70;11.70;;;;;;;;;;5093273;28;20453;-66
2022/06/26 03:38:37;;;;;;;17.27;11.48;;;;;;;;;;5093334;28;20380;-67
2022/06/26 03:41:02;;;;;;;18.48;11.75;;;;;;;;;;5093236;28;20039;-67
2022/06/26 03:43:28;;;;;;;17.27;11.45;;;;;;;;;;5093188;28;20020;-66
2022/06/26 03:45:54;;;;;;;13.93;10.70;;;;;;;;;;5093163;28;20107;-66
2022/06/26 03:48:19;;;;;;;20.30;11.50;;;;;;;;;;5093369;28;20059;-67
2022/06/26 03:50:45;;;;;;;14.30;11.18;;;;;;;;;;5093161;28;20017;-66
2022/06/26 03:53:11;;;;;;;15.00;11.63;;;;;;;;;;5093144;28;20035;-66
2022/06/26 03:55:36;;;;;;;18.13;12.38;;;;;;;;;;5093037;28;20362;-67
2022/06/26 03:58:03;;;;;;;16.67;12.63;;;;;;;;;;5093133;28;20526;-67
2022/06/26 04:00:29;;;;;;;13.93;11.55;;;;;;;;;;5092953;28;20028;-66
2022/06/26 04:02:55;;;;;;;12.57;10.98;;;;;;;;;;5092911;28;20047;-66
2022/06/26 04:05:21;;;;;;;12.43;10.73;;;;;;;;;;5092916;28;20384;-66
2022/06/26 04:07:46;;;;;;;13.75;11.70;;;;;;;;;;5092235;28;20469;-67
2022/06/26 04:10:12;;;;;;;13.85;10.65;;;;;;;;;;5092687;28;20020;-66
2022/06/26 04:12:37;;;;;;;12.80;11.38;;;;;;;;;;5092825;28;20085;-67
2022/06/26 04:15:04;;;;;;;13.98;11.85;;;;;;;;;;5092939;28;20033;-66
2022/06/26 04:17:29;;;;;;;15.77;11.55;;;;;;;;;;5093004;28;20033;-66
2022/06/26 04:19:55;;;;;;;15.00;12.13;;;;;;;;;;5092744;28;20024;-67
2022/06/26 04:22:20;;;;;;;15.40;11.70;;;;;;;;;;5092839;28;20039;-67
2022/06/26 04:24:46;;;;;;;12.95;11.65;;;;;;;;;;5092257;28;20062;-67
2022/06/26 04:27:13;;;;;;;15.77;12.75;;;;;;;;;;5092508;28;20420;-67
2022/06/26 04:29:39;;;;;;;14.30;12.88;;;;;;;;;;5092736;28;20082;-67
2022/06/26 04:32:04;;;;;;;14.00;12.60;;;;;;;;;;5092589;28;20032;-67
2022/06/26 04:34:30;;;;;;;14.15;11.43;;;;;;;;;;5092615;28;20480;-67
2022/06/26 04:36:56;;;;;;;14.95;10.73;;;;;;;;;;5092595;28;20107;-66
2022/06/26 04:39:21;;;;;;;11.50;9.55;;;;;;;;;;5092245;28;20384;-67
2022/06/26 04:41:47;;;;;;;13.57;10.05;;;;;;;;;;5092489;28;20028;-66
2022/06/26 04:44:13;;;;;;;16.48;11.20;;;;;;;;;;5092393;28;20362;-66
2022/06/26 04:46:40;;;;;;;12.63;10.55;;;;;;;;;;5092130;28;20113;-67
2022/06/26 04:49:06;;;;;;;14.18;10.52;;;;;;;;;;5091907;28;20408;-66
2022/06/26 04:51:35;;;;;;;13.43;10.55;;;;;;;;;;5092444;28;20129;-67
2022/06/26 04:54:02;;;;;;;17.20;10.38;;;;;;;;;;5091043;28;20124;-66
2022/06/26 04:56:28;;;;;;;15.23;10.80;;;;;;;;;;5092391;28;20045;-67
2022/06/26 04:58:54;;;;;;;11.32;9.50;;;;;;;;;;5092410;28;20027;-66
2022/06/26 05:01:19;;;;;;;13.20;9.63;;;;;;;;;;5092097;28;20032;-67
2022/06/26 05:03:45;;;;;;;14.93;9.70;;;;;;;;;;5092295;28;20020;-66
2022/06/26 05:06:11;;;;;;;12.13;9.20;;;;;;;;;;5092219;28;20392;-67
2022/06/26 05:08:36;;;;;;;11.85;9.07;;;;;;;;;;5091905;28;20024;-66
2022/06/26 05:11:02;;;;;;;10.63;9.52;;;;;;;;;;5092166;28;20028;-66
2022/06/26 05:13:28;;;;;;;14.93;9.40;;;;;;;;;;5092211;28;20473;-65
2022/06/26 05:15:53;;;;;;;10.27;9.23;;;;;;;;;;5092138;28;20032;-67
2022/06/26 05:18:19;;;;;;;10.82;8.90;;;;;;;;;;5092879;28;20032;-66
2022/06/26 05:20:44;;;;;;;13.02;8.32;;;;;;;;;;5096009;28;20032;-67
2022/06/26 05:23:11;;;;;;;11.18;8.43;;;;;;;;;;5095884;28;20468;-67
2022/06/26 05:25:38;;;;;;;10.15;8.30;;;;;;;;;;5096039;28;20169;-67
2022/06/26 05:28:04;;;;;;;9.57;8.50;;;;;;;;;;5096026;28;20381;-67
2022/06/26 05:30:29;;;;;;;9.10;8.13;;;;;;;;;;5095885;28;20420;-66
2022/06/26 05:32:55;;;;;;;11.68;8.55;;;;;;;;;;5095953;28;20062;-67
2022/06/26 05:35:20;;;;;;;11.48;9.60;;;;;;;;;;5095666;28;20032;-67
2022/06/26 05:37:46;;;;;;;9.65;8.52;;;;;;;;;;5095523;28;20115;-66
2022/06/26 05:40:12;;;;;;;11.32;9.07;;;;;;;;;;5095600;28;20070;-66
2022/06/26 05:42:38;;;;;;;11.27;8.88;;;;;;;;;;5095637;28;20024;-66
2022/06/26 05:45:04;;;;;;;15.15;9.00;;;;;;;;;;5095450;28;20130;-65
2022/06/26 05:47:30;;;;;;;12.40;9.43;;;;;;;;;;5095517;28;20453;-67
2022/06/26 05:49:55;;;;;;;12.38;9.55;;;;;;;;;;5094990;28;20085;-67
2022/06/26 05:52:21;;;;;;;13.85;9.55;;;;;;;;;;5095422;28;20028;-67
2022/06/26 05:54:47;;;;;;;11.52;10.25;;;;;;;;;;5095437;28;20081;-66
2022/06/26 05:57:13;;;;;;;13.73;9.65;;;;;;;;;;5095347;28;20054;-67
2022/06/26 05:59:39;;;;;;;15.32;10.20;;;;;;;;;;5095359;28;20035;-67
2022/06/26 06:02:05;;;;;;;13.18;9.70;;;;;;;;;;5095284;28;20115;-67
2022/06/26 06:04:30;;;;;;;10.35;9.32;;;;;;;;;;5095204;28;20024;-67
2022/06/26 06:06:56;;;;;;;12.23;9.43;;;;;;;;;;5094932;28;20036;-66
2022/06/26 06:09:21;;;;;;;11.90;9.82;;;;;;;;;;5094984;28;20028;-67
2022/06/26 06:11:47;;;;;;;16.70;9.13;;;;;;;;;;5095147;28;20016;-67
2022/06/26 06:14:12;;;;;;;10.32;9.00;;;;;;;;;;5095035;28;20025;-66
2022/06/26 06:16:38;;;;;;;15.57;10.10;;;;;;;;;;5094720;28;20028;-66
2022/06/26 06:19:03;;;;;;;13.63;9.75;;;;;;;;;;5093368;28;20103;-66
2022/06/26 06:21:29;;;;;;;10.95;9.30;;;;;;;;;;5094636;28;20050;-66
2022/06/26 06:23:55;;;;;;;11.73;9.55;;;;;;;;;;5094580;28;20079;-67
2022/06/26 06:26:20;;;;;;;13.20;9.43;;;;;;;;;;5094754;28;20052;-67
2022/06/26 06:28:46;;;;;;;11.32;8.88;;;;;;;;;;5094576;28;20489;-66
2022/06/26 06:31:11;;;;;;;12.45;9.60;;;;;;;;;;5093837;28;20027;-66
2022/06/26 06:33:37;;;;;;;10.73;9.27;;;;;;;;;;5094599;28;20035;-66
2022/06/26 06:36:03;;;;;;;14.88;10.25;;;;;;;;;;5094261;28;20031;-66
2022/06/26 06:38:28;;;;;;;14.38;9.95;;;;;;;;;;5094346;28;20048;-66
2022/06/26 06:40:54;;;;;;;10.73;9.60;;;;;;;;;;5094284;28;20024;-66
2022/06/26 06:43:19;;;;;;;12.88;10.02;;;;;;;;;;5094409;28;20041;-67
2022/06/26 06:45:45;;;;;;;12.77;10.15;;;;;;;;;;5094287;28;20497;-66
2022/06/26 06:48:10;;;;;;;11.30;9.85;;;;;;;;;;5094034;28;20359;-67
2022/06/26 06:50:36;;;;;;;13.23;10.05;;;;;;;;;;5093979;28;20469;-67
2022/06/26 06:53:02;;;;;;;12.32;9.52;;;;;;;;;;5094276;28;20077;-64
2022/06/26 06:55:28;;;;;;;12.05;9.55;;;;;;;;;;5094148;28;20031;-67
2022/06/26 06:57:53;;;;;;;11.18;9.20;;;;;;;;;;5094125;28;20051;-67
2022/06/26 07:00:19;;;;;;;13.05;9.75;;;;;;;;;;5093813;28;20103;-66
2022/06/26 07:02:44;;;;;;;14.80;9.27;;;;;;;;;;5093651;28;20047;-66
2022/06/26 07:05:10;;;;;;;13.15;9.63;;;;;;;;;;5093774;28;20024;-66
2022/06/26 07:07:36;;;;;;;10.98;9.73;;;;;;;;;;5093834;28;20034;-66
2022/06/26 07:10:03;;;;;;;11.45;9.20;;;;;;;;;;5093840;28;20073;-66
2022/06/26 07:12:28;;;;;;;10.70;8.93;;;;;;;;;;5093778;28;20028;-67
2022/06/26 07:14:54;;;;;;;10.30;9.05;;;;;;;;;;5093941;28;20384;-66
2022/06/26 07:17:22;;;;;;;9.85;8.32;;;;;;;;;;5093470;28;20032;-67
2022/06/26 07:19:48;;;;;;;9.20;8.25;;;;;;;;;;5093783;28;20039;-66
2022/06/26 07:22:14;;;;;;;13.98;8.93;;;;;;;;;;5093753;28;20081;-66
2022/06/26 07:24:39;;;;;;;10.27;8.80;;;;;;;;;;5093405;28;20443;-66
2022/06/26 07:27:06;;;;;;;10.15;7.95;;;;;;;;;;5093393;28;20028;-65
2022/06/26 07:29:32;;;;;;;8.82;7.43;;;;;;;;;;5093426;28;20028;-66
2022/06/26 07:31:58;;;;;;;9.18;8.20;;;;;;;;;;5093386;28;20095;-66
2022/06/26 07:34:25;;;;;;;9.00;7.55;;;;;;;;;;5093535;28;20105;-66
2022/06/26 07:36:51;;;;;;;10.18;7.57;;;;;;;;;;5093473;28;20050;-66
2022/06/26 07:39:20;;;;;;;11.35;7.30;;;;;;;;;;5093204;28;20469;-66
2022/06/26 07:41:48;;;;;;;10.75;7.70;;;;;;;;;;5092457;28;20036;-66
2022/06/26 07:44:14;;;;;;;10.07;6.97;;;;;;;;;;5093339;28;20043;-66
2022/06/26 07:46:40;;;;;;;7.30;6.45;;;;;;;;;;5092849;28;20067;-66
2022/06/26 07:49:06;;;;;;;7.75;6.63;;;;;;;;;;5092750;28;20031;-67
2022/06/26 07:51:33;;;;;;;10.38;6.00;;;;;;;;;;5092944;28;20020;-66
2022/06/26 07:53:59;;;;;;;7.30;5.97;;;;;;;;;;5091792;28;20028;-67
2022/06/26 07:56:25;;;;;;;7.20;5.70;;;;;;;;;;5093010;28;20047;-67
2022/06/26 07:58:52;;;;;;;12.65;5.72;;;;;;;;;;5093005;28;20020;-66
2022/06/26 08:01:18;;;;;;;8.50;5.82;;;;;;;;;;5092716;28;20020;-63
2022/06/26 08:03:44;;;;;;;7.15;5.60;;;;;;;;;;5092967;28;20016;-63
2022/06/26 08:06:09;;;;;;;7.47;5.05;;;;;;;;;;5092847;28;20024;-66
2022/06/26 08:08:35;;;;;;;7.75;5.22;;;;;;;;;;5092341;28;20508;-65
2022/06/26 08:11:00;;;;;;;9.85;5.60;;;;;;;;;;5092475;28;20020;-65
2022/06/26 08:13:26;;;;;;;8.60;5.45;;;;;;;;;;5092788;28;20442;-65
2022/06/26 08:15:52;;;;;;;9.98;5.50;;;;;;;;;;5092447;28;20529;-67
2022/06/26 08:18:17;;;;;;;6.40;4.75;;;;;;;;;;5092501;28;20024;-67
2022/06/26 08:20:43;;;;;;;7.65;4.55;;;;;;;;;;5092385;28;20417;-67
2022/06/26 08:23:09;;;;;;;6.82;4.57;;;;;;;;;;5109184;28;20106;-66
2022/06/26 08:25:35;;;;;;;6.07;4.80;;;;;;;;;;5112724;28;20126;-67
2022/06/26 08:28:00;;;;;;;7.28;4.95;;;;;;;;;;5112566;28;20532;-67
2022/06/26 08:30:26;;;;;;;10.38;5.40;;;;;;;;;;5100350;28;20031;-65
2022/06/26 08:32:56;;;;;;;10.30;5.68;;;;;;;;;;5092521;28;20081;-65
2022/06/26 08:35:22;;;;;;;7.53;4.72;;;;;;;;;;5092216;28;20042;-64
2022/06/26 08:37:48;;;;;;;6.45;4.63;;;;;;;;;;5092408;28;20385;-65
2022/06/26 08:40:13;;;;;;;10.60;4.72;;;;;;;;;;5092348;28;20123;-67
2022/06/26 08:42:41;;;;;;;5.53;4.20;;;;;;;;;;5092278;28;20111;-66
2022/06/26 08:45:08;;;;;;;8.13;4.55;;;;;;;;;;5091793;28;20023;-67
2022/06/26 08:47:39;;;;;;;5.93;4.13;;;;;;;;;;5092570;28;20423;-67
2022/06/26 08:50:07;;;;;;;7.72;4.50;;;;;;;;;;5092316;28;20052;-67
2022/06/26 08:52:32;;;;;;;4.93;4.10;;;;;;;;;;5092084;28;20034;-65
2022/06/26 08:54:58;;;;;;;6.22;4.43;;;;;;;;;;5096241;28;20107;-66
2022/06/26 08:57:24;;;;;;;9.20;4.72;;;;;;;;;;5096388;28;20093;-66
2022/06/26 08:59:50;;;;;;;6.18;4.60;;;;;;;;;;5096068;28;20077;-63
2022/06/26 09:02:16;;;;;;;5.25;3.97;;;;;;;;;;5096638;28;20028;-66
2022/06/26 09:04:41;;;;;;;7.75;4.22;;;;;;;;;;5096228;28;20062;-66
2022/06/26 09:07:08;;;;;;;6.38;3.75;;;;;;;;;;5096343;28;20149;-66
2022/06/26 09:09:37;;;;;;;5.28;3.80;;;;;;;;;;5096457;28;20023;-66
2022/06/26 09:12:04;;;;;;;7.35;4.75;;;;;;;;;;5096394;28;20515;-64
2022/06/26 09:14:30;;;;;;;6.32;3.65;;;;;;;;;;5096200;28;20032;-66
2022/06/26 09:16:56;;;;;;;6.07;3.63;;;;;;;;;;5096140;28;20031;-66
2022/06/26 09:19:29;;;;;;;4.78;3.33;;;;;;;;;;5096163;28;20035;-67
2022/06/26 09:22:09;;;;;;;8.30;3.83;;;;;;;;;;5096187;28;20032;-67
2022/06/26 09:24:37;;;;;;;5.80;4.03;;;;;;;;;;5095812;28;20044;-67
2022/06/26 09:27:16;;;;;;;7.63;4.18;;;;;;;;;;5095997;28;20067;-67
2022/06/26 09:29:51;;;;;;;8.18;3.97;;;;;;;;;;5095783;28;20077;-67
2022/06/26 09:32:17;;;;;;;15.40;3.85;;;;;;;;;;5095504;28;20039;-65
2022/06/26 09:34:49;;;;;;;4.72;3.63;;;;;;;;;;5093518;28;20032;-67
2022/06/26 09:37:15;;;;;;;5.13;3.40;;;;;;;;;;5091471;28;20032;-66
2022/06/26 09:39:42;;;;;;;5.53;3.55;;;;;;;;;;5092316;28;20052;-67
2022/06/26 09:42:17;;;;;;;6.32;3.28;;;;;;;;;;5091985;28;20062;-68
2022/06/26 09:44:48;;;;;;;6.00;3.30;;;;;;;;;;5091734;28;20039;-66
2022/06/26 09:47:25;;;;;;;5.85;3.00;;;;;;;;;;5091500;28;20129;-66
2022/06/26 09:49:53;;;;;;;6.85;3.28;;;;;;;;;;5091271;28;20032;-67
2022/06/26 09:52:21;;;;;;;7.00;3.20;;;;;;;;;;5091762;28;20021;-66
2022/06/26 09:54:47;;;;;;;9.32;3.60;;;;;;;;;;5091204;28;20469;-67
2022/06/26 09:57:14;;;;;;;5.75;3.03;;;;;;;;;;5091258;28;20036;-67
2022/06/26 09:59:40;;;;;;;6.22;3.35;;;;;;;;;;5091306;28;20028;-67
2022/06/26 10:07:40;;;;;;;4.63;2.72;;;;;;;;;;5091559;28;20047;-65
2022/06/26 10:10:07;;;;;;;6.03;3.45;;;;;;;;;;5091235;28;20025;-68
2022/06/26 10:12:33;;;;;;;5.32;3.17;;;;;;;;;;5090926;28;20027;-66
2022/06/26 10:15:01;;;;;;;4.10;3.40;;;;;;;;;;5091291;28;20032;-67
2022/06/26 10:17:41;;;;;;;6.63;3.53;;;;;;;;;;5090594;28;20028;-67
2022/06/26 10:20:09;;;;;;;4.43;3.08;;;;;;;;;;5091015;28;20063;-67
2022/06/26 10:22:52;;;;;;;5.03;3.47;;;;;;;;;;5090978;28;20357;-66
2022/06/26 10:25:26;;;;;;;8.60;3.60;;;;;;;;;;5090705;28;20131;-66
2022/06/26 10:27:52;;;;;;;4.32;3.00;;;;;;;;;;5090794;28;20481;-67
2022/06/26 10:30:23;;;;;;;5.50;3.08;;;;;;;;;;5090815;28;20032;-66
2022/06/26 10:33:22;;;;;;;3.78;2.92;;;;;;;;;;5093835;28;20019;-66
2022/06/26 10:35:49;;;;;;;4.30;3.30;;;;;;;;;;5111110;28;20023;-67
2022/06/26 10:38:25;;;;;;;7.05;3.05;;;;;;;;;;5111210;28;20472;-67
2022/06/26 10:44:06;;;;;;;5.43;2.97;;;;;;;;;;5110553;28;20111;-67
2022/06/26 10:46:45;;;;;;;3.90;2.88;;;;;;;;;;5110847;28;20030;-67
2022/06/26 10:49:11;;;;;;;6.40;3.38;;;;;;;;;;5114985;28;20072;-67
2022/06/26 10:51:44;;;;;;;6.80;3.65;;;;;;;;;;5114915;28;20415;-67
2022/06/26 10:54:29;;;;;;;6.47;3.15;;;;;;;;;;5114905;27;20023;-67
2022/06/26 10:57:17;;;;;;;5.72;3.58;;;;;;;;;;5114767;28;20019;-68
2022/06/26 10:59:44;;;;;;;7.78;3.92;;;;;;;;;;5114607;28;20076;-67
2022/06/26 11:02:11;;;;;;;8.55;3.60;;;;;;;;;;5114852;28;20036;-67
2022/06/26 11:04:47;;;;;;;4.95;3.53;;;;;;;;;;5114167;28;20031;-66
2022/06/26 11:07:14;;;;;;;6.07;3.47;;;;;;;;;;5114666;28;20027;-67
2022/06/26 11:09:40;;;;;;;5.72;3.78;;;;;;;;;;5114340;27;20024;-67
2022/06/26 11:12:06;;;;;;;9.43;3.67;;;;;;;;;;5114532;28;20024;-68
2022/06/26 11:14:31;;;;;;;6.78;3.50;;;;;;;;;;5114747;28;20024;-68
2022/06/26 11:16:57;;;;;;;4.35;3.72;;;;;;;;;;5111591;28;20034;-66
2022/06/26 11:19:25;;;;;;;5.18;3.40;;;;;;;;;;5093891;28;20063;-67
2022/06/26 11:22:02;;;;;;;7.90;3.85;;;;;;;;;;5094127;28;20032;-67
2022/06/26 11:24:28;;;;;;;5.15;3.53;;;;;;;;;;5093589;28;20374;-66
2022/06/26 11:26:54;;;;;;;8.75;3.78;;;;;;;;;;5093922;28;20072;-67
2022/06/26 11:29:20;;;;;;;6.03;3.67;;;;;;;;;;5093634;28;20473;-68
2022/06/26 11:31:49;;;;;;;4.80;3.75;;;;;;;;;;5093899;28;20035;-67
2022/06/26 11:34:15;;;;;;;;;;;;;;;;;;5093986;28;20020;-69
2022/06/26 11:36:55;;;;;;;5.88;3.83;;;;;;;;;;5093821;28;19912;-68
2022/06/26 11:39:22;;;;;;;5.78;3.80;;;;;;;;;;5093428;28;20505;-68
2022/06/26 11:41:47;;;;;;;7.22;4.00;;;;;;;;;;5093759;28;20032;-65
2022/06/26 11:44:13;;;;;;;4.45;3.38;;;;;;;;;;5093463;28;20043;-66
2022/06/26 11:46:40;;;;;;;6.35;3.95;;;;;;;;;;5093596;28;20055;-67
2022/06/26 11:49:09;;;;;;;6.90;3.60;;;;;;;;;;5093491;28;20024;-68
2022/06/26 11:51:34;;;;;;;5.68;3.80;;;;;;;;;;5093450;28;20031;-68
2022/06/26 11:54:00;;;;;;;5.13;3.65;;;;;;;;;;5093145;28;20036;-68
2022/06/26 11:56:30;;;;;;;5.55;3.47;;;;;;;;;;5092946;28;20028;-68
2022/06/26 11:58:57;;;;;;;;;;;;;;;;;;5093685;28;20024;-66
2022/06/26 12:01:33;;;;;;;5.28;3.53;;;;;;;;;;5093150;28;20003;-69
2022/06/26 12:03:59;;;;;;;5.88;3.65;;;;;;;;;;5093368;28;20431;-67
2022/06/26 12:06:36;;;;;;;7.90;3.50;;;;;;;;;;5093318;28;20028;-68
2022/06/26 12:09:17;;;;;;;5.65;3.95;;;;;;;;;;5092706;28;20059;-68
2022/06/26 12:11:44;;;;;;;6.03;3.50;;;;;;;;;;5093001;28;20028;-67
2022/06/26 12:14:11;;;;;;;6.22;3.70;;;;;;;;;;5093203;28;20024;-69
2022/06/26 12:16:51;;;;;;;5.38;3.80;;;;;;;;;;5092262;28;20020;-68
2022/06/26 12:19:18;;;;;;;9.32;4.00;;;;;;;;;;5072598;28;20036;-68
2022/06/26 12:21:49;;;;;;;5.05;3.50;;;;;;;;;;5080295;28;20031;-67
2022/06/26 12:24:17;;;;;;;8.93;3.78;;;;;;;;;;5092798;28;20370;-68
2022/06/26 12:26:43;;;;;;;6.50;3.20;;;;;;;;;;5093006;28;20040;-69
2022/06/26 12:29:11;;;;;;;6.88;3.55;;;;;;;;;;5092121;28;20099;-68
2022/06/26 12:31:37;;;;;;;6.25;3.90;;;;;;;;;;5092950;28;20032;-68
2022/06/26 12:34:04;;;;;;;4.10;3.20;;;;;;;;;;5092790;28;20099;-70
2022/06/26 12:36:30;;;;;;;5.10;3.42;;;;;;;;;;5092587;28;20258;-68
2022/06/26 12:38:56;;;;;;;4.78;3.63;;;;;;;;;;5092665;28;20035;-68
2022/06/26 12:41:22;;;;;;;5.60;2.90;;;;;;;;;;5092565;28;20028;-68
2022/06/26 12:43:53;;;;;;;5.93;3.50;;;;;;;;;;5092478;28;20480;-69
2022/06/26 12:46:19;;;;;;;5.13;3.22;;;;;;;;;;5092823;28;20032;-68
2022/06/26 12:48:44;;;;;;;4.07;3.17;;;;;;;;;;5092564;28;20099;-68
2022/06/26 12:51:11;;;;;;;5.15;3.40;;;;;;;;;;5092384;28;20491;-69
2022/06/26 12:53:37;;;;;;;3.15;2.58;;;;;;;;;;5092680;28;20031;-68
2022/06/26 12:56:03;;;;;;;11.13;3.20;;;;;;;;;;5092689;28;20059;-68
2022/06/26 12:58:29;;;;;;;4.63;3.00;;;;;;;;;;5092596;28;20198;-68
2022/06/26 13:00:55;;;;;;;6.07;3.13;;;;;;;;;;5091920;28;20063;-69
2022/06/26 13:03:21;;;;;;;5.65;3.03;;;;;;;;;;5092450;28;20047;-67
2022/06/26 13:05:47;;;;;;;3.88;2.90;;;;;;;;;;5091926;28;20074;-68
2022/06/26 13:08:14;;;;;;;3.75;2.95;;;;;;;;;;5091810;28;20062;-68
2022/06/26 13:10:41;;;;;;;4.65;3.08;;;;;;;;;;5092039;28;20104;-68
2022/06/26 13:13:06;;;;;;;4.22;2.80;;;;;;;;;;5092434;28;20051;-68
2022/06/26 13:15:32;;;;;;;5.85;3.05;;;;;;;;;;5092492;28;20087;-68
2022/06/26 13:17:58;;;;;;;6.30;3.03;;;;;;;;;;5081211;28;20032;-68
2022/06/26 13:20:23;;;;;;;6.45;3.10;;;;;;;;;;5072136;28;20051;-68
2022/06/26 13:22:49;;;;;;;3.97;3.25;;;;;;;;;;5072318;28;20024;-69
2022/06/26 13:25:14;;;;;;;5.10;3.45;;;;;;;;;;5072041;28;20036;-68
2022/06/26 13:27:40;;;;;;;3.88;3.20;;;;;;;;;;5072414;28;20025;-68
2022/06/26 13:30:06;;;;;;;6.88;3.58;;;;;;;;;;5071951;28;20465;-68
2022/06/26 13:32:32;;;;;;;4.90;3.30;;;;;;;;;;5072259;28;20520;-67
2022/06/26 13:34:58;;;;;;;5.57;3.65;;;;;;;;;;5072027;28;20036;-69
2022/06/26 13:37:23;;;;;;;7.72;3.80;;;;;;;;;;5072194;28;20486;-68
2022/06/26 13:39:49;;;;;;;3.97;3.20;;;;;;;;;;5073785;28;20565;-68
2022/06/26 13:42:14;;;;;;;4.18;3.60;;;;;;;;;;5075730;28;20121;-69
2022/06/26 13:44:40;;;;;;;9.02;3.53;;;;;;;;;;5075663;28;20039;-68
2022/06/26 13:47:05;;;;;;;6.10;3.47;;;;;;;;;;5075519;28;20029;-68
2022/06/26 13:49:31;;;;;;;7.78;3.58;;;;;;;;;;5075320;28;20446;-67
2022/06/26 13:51:56;;;;;;;7.32;3.45;;;;;;;;;;5075598;28;20025;-68
2022/06/26 13:54:22;;;;;;;8.63;3.85;;;;;;;;;;5075550;28;20351;-67
2022/06/26 13:56:47;;;;;;;6.72;3.60;;;;;;;;;;5075392;28;20028;-68
2022/06/26 13:59:13;;;;;;;6.78;3.70;;;;;;;;;;5075447;28;20039;-68
2022/06/26 14:01:39;;;;;;;5.25;3.53;;;;;;;;;;5074129;28;20040;-66
2022/06/26 14:04:04;;;;;;;4.57;3.88;;;;;;;;;;5073884;28;20077;-68
2022/06/26 14:06:30;;;;;;;7.22;4.15;;;;;;;;;;5075332;28;20054;-69
2022/06/26 14:08:56;;;;;;;6.18;4.50;;;;;;;;;;5075300;28;20020;-66
2022/06/26 14:11:22;;;;;;;6.07;4.25;;;;;;;;;;5075200;28;20021;-68
2022/06/26 14:13:48;;;;;;;6.25;4.40;;;;;;;;;;5075200;28;20029;-66
2022/06/26 14:16:14;;;;;;;9.13;3.70;;;;;;;;;;5075082;28;20016;-66
2022/06/26 14:18:40;;;;;;;6.28;4.80;;;;;;;;;;5074367;28;20056;-68
2022/06/26 14:21:07;;;;;;;8.00;4.55;;;;;;;;;;5075090;28;20090;-67
2022/06/26 14:26:18;;;;;;;6.60;4.30;;;;;;;;;;5075030;28;20089;-66
2022/06/26 14:28:44;;;;;;;5.57;4.38;;;;;;;;;;5074915;28;20461;-68
2022/06/26 14:31:10;;;;;;;5.70;3.90;;;;;;;;;;5074913;28;20036;-68
2022/06/26 14:33:36;;;;;;;5.20;4.00;;;;;;;;;;5074769;28;20024;-67
2022/06/26 14:36:04;;;;;;;9.50;4.57;;;;;;;;;;5074643;28;20039;-68
2022/06/26 14:38:29;;;;;;;5.20;3.95;;;;;;;;;;5074825;28;20091;-69
2022/06/26 14:40:59;;;;;;;6.78;4.32;;;;;;;;;;5074653;28;20028;-68
2022/06/26 14:43:25;;;;;;;4.72;4.20;;;;;;;;;;5073198;28;20028;-69
2022/06/26 14:45:51;;;;;;;4.45;3.80;;;;;;;;;;5074405;28;20435;-68
2022/06/26 14:48:17;;;;;;;6.32;3.85;;;;;;;;;;5074506;28;20055;-69